Terminal Aerodrome Forecast
Issued by NWS

Home | Current Version | Previous Version | Text Only | Print | Product List | Glossary On
Versions: 1 2 3 4 5 6 7 8 9 10 11 12 13
629
FTUS41 KCLE 271123
TAFFDY
TAF
KFDY 271123Z 2712/2812 VRB04KT P6SM VCSH SCT025 OVC050
      TEMPO 2713/2715 5SM -SHRA SCT025 OVC040
     FM271500 VRB04KT P6SM VCSH BKN035 OVC050
     FM271900 VRB03KT P6SM VCTS BKN030CB OVC050
     FM272100 VRB03KT P6SM SCT025 BKN050
     FM280500 04007KT P6SM BKN040=

USA.gov is the U.S. government's official web portal to all federal, state and local government web resources and services.